createdAt,value
2022-10-20T00:01:28.870Z,12.70
2022-10-20T00:06:35.703Z,12.00
2022-10-20T00:11:43.340Z,15.73
2022-10-20T00:16:48.412Z,12.90
2022-10-20T00:21:53.499Z,10.02
2022-10-20T00:27:01.188Z,12.00
2022-10-20T00:32:06.330Z,8.80
2022-10-20T00:37:11.420Z,9.48
2022-10-20T00:42:21.587Z,11.07
2022-10-20T00:47:37.378Z,9.48
2022-10-20T00:52:43.245Z,9.55
2022-10-20T00:57:53.468Z,12.25
2022-10-20T01:03:00.629Z,10.75
2022-10-20T01:08:05.670Z,10.38
2022-10-20T01:13:19.223Z,11.90
2022-10-20T01:18:30.829Z,11.68
2022-10-20T01:24:04.293Z,10.75
2022-10-20T01:29:13.657Z,14.95
2022-10-20T01:34:24.030Z,10.38
2022-10-20T01:39:33.288Z,12.02
2022-10-20T01:44:42.900Z,9.77
2022-10-20T01:49:49.464Z,9.95
2022-10-20T01:54:54.485Z,10.85
2022-10-20T02:00:08.438Z,11.75
2022-10-20T02:05:22.358Z,14.07
2022-10-20T02:10:32.647Z,11.32
2022-10-20T02:15:42.280Z,11.05
2022-10-20T02:20:49.232Z,12.80
2022-10-20T02:25:55.874Z,16.77
2022-10-20T02:31:03.500Z,10.95
2022-10-20T02:36:10.578Z,10.43
2022-10-20T02:41:15.854Z,10.00
2022-10-20T02:46:23.458Z,8.10
2022-10-20T02:51:28.426Z,8.80
2022-10-20T02:56:33.407Z,11.75
2022-10-20T03:01:41.018Z,9.98
2022-10-20T03:06:46.059Z,10.20
2022-10-20T03:11:51.091Z,11.10
2022-10-20T03:16:58.694Z,7.32
2022-10-20T03:22:03.700Z,8.35
2022-10-20T03:27:08.803Z,13.15
2022-10-20T03:32:16.411Z,8.43
2022-10-20T03:37:21.382Z,7.85
2022-10-20T03:42:26.415Z,6.97
2022-10-20T03:47:34.058Z,6.53
2022-10-20T03:52:39.234Z,7.30
2022-10-20T03:57:44.425Z,9.80
2022-10-20T04:02:53.324Z,8.30
2022-10-20T04:07:58.378Z,8.32
2022-10-20T04:13:04.022Z,6.32
2022-10-20T04:18:11.871Z,8.43
2022-10-20T04:23:16.868Z,6.88
2022-10-20T04:28:23.200Z,7.47
2022-10-20T04:33:30.803Z,7.85
2022-10-20T04:38:36.831Z,5.30
2022-10-20T04:43:41.780Z,7.00
2022-10-20T04:48:49.509Z,8.30
2022-10-20T04:53:55.993Z,7.15
2022-10-20T04:59:03.288Z,6.50
2022-10-20T05:04:11.096Z,8.63
2022-10-20T05:09:16.785Z,6.65
2022-10-20T05:14:21.888Z,9.57
2022-10-20T05:19:29.704Z,7.47
2022-10-20T05:24:34.767Z,7.68
2022-10-20T05:29:39.853Z,11.30
2022-10-20T05:34:47.480Z,8.90
2022-10-20T05:39:52.608Z,8.30
2022-10-20T05:44:57.638Z,9.07
2022-10-20T05:50:05.327Z,10.48
2022-10-20T05:55:12.460Z,7.72
2022-10-20T06:00:23.823Z,9.00
2022-10-20T06:05:31.556Z,7.80
2022-10-20T06:10:44.097Z,6.88
2022-10-20T06:15:49.489Z,8.55
2022-10-20T06:21:05.545Z,6.18
2022-10-20T06:26:12.762Z,6.63
2022-10-20T06:31:20.536Z,7.15
2022-10-20T06:36:29.197Z,6.53
2022-10-20T06:41:34.906Z,8.88
2022-10-20T06:46:40.381Z,8.45
2022-10-20T06:51:48.256Z,5.93
2022-10-20T06:56:53.583Z,6.18
2022-10-20T07:01:59.080Z,5.38
2022-10-20T07:07:06.971Z,8.90
2022-10-20T07:12:12.195Z,7.60
2022-10-20T07:17:17.542Z,5.75
2022-10-20T07:22:25.412Z,7.40
2022-10-20T07:27:30.632Z,6.82
2022-10-20T07:32:36.011Z,4.32
2022-10-20T07:37:44.111Z,5.28
2022-10-20T07:42:49.355Z,4.80
2022-10-20T07:47:56.678Z,10.98
2022-10-20T07:53:04.860Z,3.40
2022-10-20T07:58:09.981Z,3.65
2022-10-20T08:03:15.255Z,3.60
2022-10-20T08:08:23.315Z,4.47
2022-10-20T08:13:28.812Z,3.70
2022-10-20T08:18:39.463Z,6.47
2022-10-20T08:23:48.966Z,4.07
2022-10-20T08:28:55.844Z,3.67
2022-10-20T08:34:01.136Z,3.72
2022-10-20T08:39:09.020Z,2.60
2022-10-20T08:44:19.222Z,4.50
2022-10-20T08:49:30.484Z,3.22
2022-10-20T08:54:38.749Z,5.07
2022-10-20T08:59:44.548Z,3.60
2022-10-20T09:04:52.409Z,4.22
2022-10-20T09:10:06.881Z,2.85
2022-10-20T09:15:14.454Z,2.40
2022-10-20T09:20:24.196Z,2.80
2022-10-20T09:25:32.088Z,2.58
2022-10-20T09:30:37.829Z,2.60
2022-10-20T09:35:43.307Z,3.28
2022-10-20T09:41:14.782Z,4.35
2022-10-20T09:46:24.786Z,1.95
2022-10-20T09:51:31.421Z,3.55
2022-10-20T09:56:42.542Z,2.33
2022-10-20T10:01:57.041Z,4.95
2022-10-20T10:07:02.340Z,6.97
2022-10-20T10:12:23.824Z,5.80
2022-10-20T10:17:33.273Z,4.45
2022-10-20T10:22:39.167Z,6.55
2022-10-20T10:28:01.046Z,3.75
2022-10-20T10:33:28.932Z,4.55
2022-10-20T10:38:34.439Z,3.20
2022-10-20T10:43:48.794Z,2.80
2022-10-20T10:49:22.153Z,4.93
2022-10-20T10:54:38.907Z,4.07
2022-10-20T10:59:51.778Z,2.53
2022-10-20T11:05:08.385Z,2.17
2022-10-20T11:10:19.379Z,3.15
2022-10-20T11:15:40.043Z,4.63
2022-10-20T11:20:53.388Z,3.15
2022-10-20T11:26:03.608Z,3.60
2022-10-20T11:31:22.498Z,6.03
2022-10-20T11:36:29.905Z,3.65
2022-10-20T11:46:49.609Z,3.33
2022-10-20T11:52:25.241Z,4.97
2022-10-20T11:57:40.513Z,7.22
2022-10-20T12:03:22.054Z,4.80
2022-10-20T12:08:46.839Z,3.75
2022-10-20T12:14:01.816Z,8.18
2022-10-20T12:19:23.411Z,4.80
2022-10-20T12:24:38.617Z,6.03
2022-10-20T12:29:53.295Z,5.85
2022-10-20T12:35:02.896Z,5.18
2022-10-20T12:40:31.791Z,5.90
2022-10-20T12:45:40.776Z,3.90
2022-10-20T12:50:50.446Z,3.33
2022-10-20T12:56:00.796Z,4.95
2022-10-20T13:01:12.468Z,2.50
2022-10-20T13:06:49.667Z,2.40
2022-10-20T13:12:00.873Z,5.10
2022-10-20T13:17:15.137Z,3.75
2022-10-20T13:22:39.535Z,4.30
2022-10-20T13:27:46.657Z,4.03
2022-10-20T13:33:11.465Z,4.80
2022-10-20T13:38:28.368Z,3.60
2022-10-20T13:43:38.033Z,3.78
2022-10-20T13:49:04.259Z,7.22
2022-10-20T13:54:19.989Z,7.10
2022-10-20T13:59:27.010Z,2.70
2022-10-20T14:04:34.083Z,3.55
2022-10-20T14:09:46.504Z,2.45
2022-10-20T14:14:56.059Z,5.03
2022-10-20T14:20:18.651Z,5.80
2022-10-20T14:25:27.008Z,3.17
2022-10-20T14:30:32.410Z,3.92
2022-10-20T14:35:47.035Z,3.92
2022-10-20T14:41:00.560Z,3.83
2022-10-20T14:46:06.834Z,5.05
2022-10-20T14:51:34.035Z,3.78
2022-10-20T14:56:47.795Z,6.55
2022-10-20T15:02:09.592Z,4.65
2022-10-20T15:07:18.416Z,8.48
2022-10-20T15:12:31.106Z,6.05
2022-10-20T15:17:39.753Z,4.30
2022-10-20T15:22:47.341Z,2.42
2022-10-20T15:27:56.609Z,4.80
2022-10-20T15:33:02.023Z,4.47
2022-10-20T15:38:07.275Z,4.20
2022-10-20T15:43:17.777Z,5.05
2022-10-20T15:48:24.223Z,7.15
2022-10-20T15:53:29.664Z,6.85
2022-10-20T15:58:39.956Z,3.00
2022-10-20T16:03:45.565Z,4.05
2022-10-20T16:08:52.113Z,3.47
2022-10-20T16:13:59.865Z,5.10
2022-10-20T16:19:04.899Z,4.15
2022-10-20T16:24:10.638Z,5.63
2022-10-20T16:29:18.336Z,4.43
2022-10-20T16:34:23.375Z,6.03
2022-10-20T16:39:28.548Z,7.18
2022-10-20T16:44:36.399Z,10.40
2022-10-20T16:49:41.631Z,9.80
2022-10-20T16:54:46.634Z,9.48
2022-10-20T16:59:54.264Z,9.50
2022-10-20T17:04:59.582Z,9.63
2022-10-20T17:10:05.048Z,8.20
2022-10-20T17:15:13.999Z,11.77
2022-10-20T17:20:19.317Z,8.50
2022-10-20T17:25:24.635Z,8.90
2022-10-20T17:30:32.501Z,12.52
2022-10-20T17:35:37.568Z,6.90
2022-10-20T17:40:42.639Z,10.27
2022-10-20T17:45:59.808Z,10.32
2022-10-20T17:51:06.094Z,9.02
2022-10-20T17:56:14.595Z,9.88
2022-10-20T18:01:25.310Z,12.68
2022-10-20T18:06:34.333Z,11.73
2022-10-20T18:11:40.611Z,9.20
2022-10-20T18:16:48.449Z,14.32
2022-10-20T18:21:53.454Z,11.23
2022-10-20T18:26:58.557Z,9.75
2022-10-20T18:32:06.273Z,11.70
2022-10-20T18:37:15.291Z,12.55
2022-10-20T18:42:22.663Z,17.10
2022-10-20T18:47:30.484Z,16.73
2022-10-20T18:52:36.934Z,17.13
2022-10-20T18:57:41.959Z,15.82
2022-10-20T19:02:55.786Z,17.50
2022-10-20T19:08:03.021Z,15.13
2022-10-20T19:13:08.054Z,14.63
2022-10-20T19:18:15.671Z,15.73
2022-10-20T19:23:20.707Z,16.05
2022-10-20T19:28:25.712Z,26.08
2022-10-20T19:33:33.326Z,16.02
2022-10-20T19:38:38.341Z,15.63
2022-10-20T19:43:43.428Z,21.17
2022-10-20T19:48:51.440Z,18.33
2022-10-20T19:53:56.448Z,25.88
2022-10-20T19:59:01.519Z,15.70
2022-10-20T20:04:10.965Z,18.65
2022-10-20T20:09:17.569Z,20.23
2022-10-20T20:14:22.655Z,18.88
2022-10-20T20:19:30.325Z,18.10
2022-10-20T20:24:35.841Z,10.05
2022-10-20T20:29:40.924Z,15.07
2022-10-20T20:34:48.531Z,10.43
2022-10-20T20:39:53.607Z,10.02
2022-10-20T20:44:58.670Z,13.38
2022-10-20T20:50:07.189Z,11.48
2022-10-20T20:55:12.596Z,9.40
2022-10-20T21:00:18.109Z,14.20
2022-10-20T21:05:25.792Z,10.70
2022-10-20T21:10:30.767Z,13.55
2022-10-20T21:15:35.792Z,10.52
2022-10-20T21:20:43.428Z,10.50
2022-10-20T21:25:49.231Z,9.48
2022-10-20T21:30:56.266Z,11.43
2022-10-20T21:36:08.914Z,8.60
2022-10-20T21:41:15.286Z,9.43
2022-10-20T21:46:21.644Z,11.63
2022-10-20T21:51:30.950Z,11.00
2022-10-20T21:56:37.952Z,10.10
2022-10-20T22:01:45.625Z,8.30
2022-10-20T22:06:53.302Z,8.57
2022-10-20T22:11:59.809Z,10.52
2022-10-20T22:17:05.035Z,10.93
2022-10-20T22:22:12.706Z,9.02
2022-10-20T22:27:31.306Z,9.35
2022-10-20T22:32:42.799Z,9.45
2022-10-20T22:37:50.513Z,7.38
2022-10-20T22:42:55.548Z,13.02
2022-10-20T22:48:00.666Z,9.38
2022-10-20T22:53:08.441Z,9.48
2022-10-20T22:58:14.457Z,11.73
2022-10-20T23:03:19.534Z,12.70
2022-10-20T23:08:29.419Z,15.30
2022-10-20T23:13:37.173Z,10.43
2022-10-20T23:18:42.380Z,10.98
2022-10-20T23:23:50.420Z,14.90
2022-10-20T23:28:55.808Z,15.23
2022-10-20T23:34:01.453Z,11.13
2022-10-20T23:39:09.100Z,14.73
2022-10-20T23:44:14.113Z,12.25
2022-10-20T23:49:19.220Z,14.32
2022-10-20T23:54:27.128Z,13.98
2022-10-20T23:59:32.230Z,11.98
